createdAt,value
2022-08-14T00:01:55.183Z,32.75
2022-08-14T00:04:34.817Z,32.52
2022-08-14T00:07:11.462Z,32.80
2022-08-14T00:10:02.258Z,32.80
2022-08-14T00:12:33.726Z,32.68
2022-08-14T00:15:11.835Z,32.89
2022-08-14T00:17:48.477Z,32.95
2022-08-14T00:20:30.492Z,32.84
2022-08-14T00:23:12.069Z,33.25
2022-08-14T00:25:43.709Z,33.16
2022-08-14T00:28:32.564Z,33.12
2022-08-14T00:31:04.758Z,33.27
2022-08-14T00:33:51.482Z,33.40
2022-08-14T00:36:36.153Z,33.29
2022-08-14T00:39:09.871Z,33.37
2022-08-14T00:41:39.059Z,33.43
2022-08-14T00:44:07.243Z,33.44
2022-08-14T00:46:37.716Z,33.32
2022-08-14T00:49:05.853Z,33.42
2022-08-14T00:51:38.011Z,33.56
2022-08-14T00:54:11.073Z,33.68
2022-08-14T00:56:49.933Z,33.62
2022-08-14T00:59:17.603Z,33.56
2022-08-14T01:01:48.592Z,33.67
2022-08-14T01:04:51.045Z,33.72
2022-08-14T01:07:08.074Z,33.78
2022-08-14T01:09:37.569Z,33.73
2022-08-14T01:12:07.807Z,33.70
2022-08-14T01:14:36.147Z,33.85
2022-08-14T01:17:05.566Z,33.89
2022-08-14T01:19:54.685Z,33.88
2022-08-14T01:22:26.684Z,33.83
2022-08-14T01:24:54.878Z,33.91
2022-08-14T01:27:25.013Z,33.96
2022-08-14T01:29:58.764Z,33.96
2022-08-14T01:32:30.095Z,34.13
2022-08-14T01:35:18.129Z,34.06
2022-08-14T01:37:54.636Z,33.99
2022-08-14T01:40:25.610Z,34.02
2022-08-14T01:43:02.757Z,34.06
2022-08-14T01:45:31.513Z,34.12
2022-08-14T01:48:13.403Z,34.07
2022-08-14T01:50:42.563Z,34.17
2022-08-14T01:53:12.566Z,34.21
2022-08-14T01:55:40.706Z,34.13
2022-08-14T01:58:20.157Z,34.32
2022-08-14T02:00:54.799Z,34.39
2022-08-14T02:03:29.980Z,34.29
2022-08-14T02:06:00.020Z,34.33
2022-08-14T02:08:35.089Z,34.30
2022-08-14T02:11:22.410Z,34.41
2022-08-14T02:13:52.874Z,34.32
2022-08-14T02:16:26.258Z,34.56
2022-08-14T02:18:56.426Z,34.51
2022-08-14T02:21:26.919Z,34.56
2022-08-14T02:23:57.375Z,34.59
2022-08-14T02:26:29.167Z,34.53
2022-08-14T02:29:03.463Z,34.60
2022-08-14T02:31:42.260Z,34.52
2022-08-14T02:34:20.337Z,34.53
2022-08-14T02:37:06.273Z,34.73
2022-08-14T02:39:38.346Z,34.64
2022-08-14T02:42:13.215Z,34.58
2022-08-14T02:44:43.185Z,34.77
2022-08-14T02:47:20.812Z,34.72
2022-08-14T02:49:50.597Z,34.91
2022-08-14T02:52:26.736Z,34.97
2022-08-14T02:55:19.710Z,34.89
2022-08-14T02:57:51.909Z,34.88
2022-08-14T03:00:26.267Z,35.00
2022-08-14T03:02:58.784Z,34.83
2022-08-14T03:05:32.856Z,34.95
2022-08-14T03:08:09.199Z,35.19
2022-08-14T03:10:41.700Z,35.02
2022-08-14T03:13:19.132Z,35.11
2022-08-14T03:15:55.888Z,34.98
2022-08-14T03:18:31.563Z,35.01
2022-08-14T03:21:01.611Z,35.08
2022-08-14T03:23:36.607Z,35.04
2022-08-14T03:26:08.653Z,35.17
2022-08-14T03:28:41.269Z,35.47
2022-08-14T03:31:13.359Z,35.30
2022-08-14T03:33:41.887Z,35.10
2022-08-14T03:37:51.186Z,35.37
2022-08-14T03:39:13.230Z,35.34
2022-08-14T03:41:48.622Z,35.47
2022-08-14T03:45:27.957Z,35.61
2022-08-14T03:47:04.443Z,35.47
2022-08-14T03:49:33.946Z,35.73
2022-08-14T03:52:04.635Z,35.36
2022-08-14T03:54:35.758Z,35.71
2022-08-14T03:57:05.415Z,35.83
2022-08-14T03:59:34.035Z,35.83
2022-08-14T04:02:04.449Z,35.72
2022-08-14T04:04:33.641Z,35.71
2022-08-14T04:07:01.623Z,35.71
2022-08-14T04:09:29.467Z,35.76
2022-08-14T04:11:59.926Z,35.91
2022-08-14T04:14:30.994Z,35.88
2022-08-14T04:17:05.051Z,36.01
2022-08-14T04:19:38.003Z,36.10
2022-08-14T04:22:06.265Z,36.13
2022-08-14T04:24:37.829Z,35.93
2022-08-14T04:27:09.373Z,36.05
2022-08-14T04:29:39.727Z,36.31
2022-08-14T04:33:01.835Z,35.94
2022-08-14T04:34:57.031Z,36.09
2022-08-14T04:37:43.377Z,36.24
2022-08-14T04:40:31.636Z,36.30
2022-08-14T04:43:17.711Z,36.34
2022-08-14T04:45:50.996Z,36.43
2022-08-14T04:48:39.645Z,36.29
2022-08-14T04:51:11.654Z,36.44
2022-08-14T04:53:43.979Z,36.16
2022-08-14T04:56:31.626Z,36.24
2022-08-14T04:59:10.158Z,36.53
2022-08-14T05:01:41.706Z,36.35
2022-08-14T05:04:19.918Z,36.84
2022-08-14T05:06:53.667Z,36.76
2022-08-14T05:09:22.646Z,36.62
2022-08-14T05:11:51.589Z,36.97
2022-08-14T05:14:46.399Z,36.72
2022-08-14T05:17:11.440Z,36.98
2022-08-14T05:19:44.756Z,36.97
2022-08-14T05:22:27.084Z,36.91
2022-08-14T05:24:55.089Z,37.09
2022-08-14T05:27:24.052Z,36.90
2022-08-14T05:29:55.296Z,36.85
2022-08-14T05:32:27.374Z,37.22
2022-08-14T05:34:58.288Z,37.07
2022-08-14T05:37:27.241Z,37.19
2022-08-14T05:39:56.317Z,37.09
2022-08-14T05:42:29.490Z,37.18
2022-08-14T05:45:00.246Z,37.06
2022-08-14T05:47:38.919Z,37.48
2022-08-14T05:50:09.665Z,37.26
2022-08-14T05:52:45.457Z,37.24
2022-08-14T05:55:13.182Z,37.61
2022-08-14T05:57:49.589Z,37.67
2022-08-14T06:00:25.015Z,37.79
2022-08-14T06:03:00.191Z,37.59
2022-08-14T06:05:29.656Z,37.91
2022-08-14T06:07:58.474Z,37.57
2022-08-14T06:10:28.184Z,37.82
2022-08-14T06:13:05.761Z,37.42
2022-08-14T06:15:33.586Z,37.87
2022-08-14T06:18:03.001Z,37.71
2022-08-14T06:20:31.969Z,37.70
2022-08-14T06:23:02.327Z,37.75
2022-08-14T06:25:30.190Z,37.79
2022-08-14T06:28:02.132Z,37.73
2022-08-14T06:30:45.734Z,37.69
2022-08-14T06:33:17.954Z,37.55
2022-08-14T06:35:47.243Z,37.57
2022-08-14T06:38:19.166Z,37.83
2022-08-14T06:40:47.296Z,38.11
2022-08-14T06:43:16.934Z,37.85
2022-08-14T06:45:53.959Z,37.76
2022-08-14T06:48:25.986Z,38.08
2022-08-14T06:50:58.061Z,38.07
2022-08-14T06:53:28.027Z,38.19
2022-08-14T06:55:59.563Z,37.96
2022-08-14T06:58:30.732Z,38.36
2022-08-14T07:01:20.387Z,38.22
2022-08-14T07:04:22.467Z,38.23
2022-08-14T07:06:51.161Z,38.29
2022-08-14T07:09:23.080Z,38.22
2022-08-14T07:11:51.678Z,38.03
2022-08-14T07:14:19.883Z,38.24
2022-08-14T07:16:47.566Z,38.13
2022-08-14T07:19:21.035Z,38.96
2022-08-14T07:21:49.185Z,38.43
2022-08-14T07:24:26.510Z,38.28
2022-08-14T07:26:58.936Z,38.39
2022-08-14T07:29:28.760Z,38.37
2022-08-14T07:31:56.780Z,38.63
2022-08-14T07:34:36.362Z,38.37
2022-08-14T07:37:04.662Z,38.75
2022-08-14T07:39:34.285Z,38.97
2022-08-14T07:42:02.302Z,38.78
2022-08-14T07:44:35.762Z,38.76
2022-08-14T07:47:15.830Z,38.96
2022-08-14T07:49:55.691Z,38.83
2022-08-14T07:52:30.344Z,39.07
2022-08-14T07:54:58.986Z,38.89
2022-08-14T07:57:27.453Z,39.18
2022-08-14T07:59:55.455Z,39.06
2022-08-14T08:02:23.842Z,38.76
2022-08-14T08:04:58.971Z,38.92
2022-08-14T08:07:31.960Z,39.03
2022-08-14T08:10:46.370Z,39.12
2022-08-14T08:13:13.860Z,39.42
2022-08-14T08:15:44.770Z,38.72
2022-08-14T08:18:27.671Z,39.31
2022-08-14T08:21:00.261Z,39.16
2022-08-14T08:23:40.159Z,39.21
2022-08-14T08:26:09.092Z,39.16
2022-08-14T08:28:36.828Z,39.19
2022-08-14T08:31:08.246Z,38.90
2022-08-14T08:33:37.783Z,39.23
2022-08-14T08:36:12.825Z,39.41
2022-08-14T08:39:15.206Z,39.36
2022-08-14T08:41:44.174Z,39.78
2022-08-14T08:44:17.385Z,39.05
2022-08-14T08:47:03.675Z,39.23
2022-08-14T08:49:43.229Z,39.51
2022-08-14T08:52:24.933Z,39.42
2022-08-14T08:54:56.654Z,39.51
2022-08-14T08:57:24.569Z,39.72
2022-08-14T08:59:55.170Z,39.34
2022-08-14T09:02:27.514Z,39.37
2022-08-14T09:05:03.311Z,39.36
2022-08-14T09:07:32.424Z,39.29
2022-08-14T09:10:01.259Z,39.38
2022-08-14T09:12:31.538Z,39.83
2022-08-14T09:15:01.849Z,39.85
2022-08-14T09:17:29.732Z,40.00
2022-08-14T09:20:01.983Z,40.01
2022-08-14T09:22:36.698Z,39.84
2022-08-14T09:25:10.707Z,39.86
2022-08-14T09:27:39.631Z,39.66
2022-08-14T09:30:31.015Z,40.04
2022-08-14T09:33:15.706Z,40.05
2022-08-14T09:36:02.855Z,39.95
2022-08-14T09:38:45.235Z,39.87
2022-08-14T09:41:24.861Z,39.59
2022-08-14T09:43:59.977Z,39.60
2022-08-14T09:46:32.311Z,39.64
2022-08-14T09:49:01.473Z,39.72
2022-08-14T09:51:33.024Z,39.79
2022-08-14T09:54:22.613Z,39.53
2022-08-14T09:56:57.419Z,39.82
2022-08-14T09:59:28.274Z,39.56
2022-08-14T10:02:01.107Z,39.54
2022-08-14T10:04:36.535Z,39.39
2022-08-14T10:07:08.213Z,39.49
2022-08-14T10:09:59.973Z,39.61
2022-08-14T10:12:48.549Z,39.84
2022-08-14T10:15:22.562Z,39.72
2022-08-14T10:18:03.759Z,39.60
2022-08-14T10:20:39.387Z,39.46
2022-08-14T10:23:17.826Z,39.43
2022-08-14T10:25:51.100Z,39.54
2022-08-14T10:28:39.065Z,39.80
2022-08-14T10:31:19.934Z,40.01
2022-08-14T10:34:12.714Z,40.03
2022-08-14T10:36:44.995Z,39.84
2022-08-14T10:39:18.507Z,39.55
2022-08-14T10:41:53.876Z,39.34
2022-08-14T10:44:29.810Z,39.66
2022-08-14T10:47:36.587Z,39.53
2022-08-14T10:49:57.849Z,39.43
2022-08-14T10:52:29.804Z,39.16
2022-08-14T10:55:08.615Z,39.41
2022-08-14T10:57:48.933Z,39.29
2022-08-14T11:00:30.240Z,39.18
2022-08-14T11:03:09.725Z,39.22
2022-08-14T11:05:43.584Z,39.15
2022-08-14T11:08:14.949Z,39.15
2022-08-14T11:10:49.149Z,39.12
2022-08-14T11:13:23.815Z,39.15
2022-08-14T11:15:54.418Z,39.30
2022-08-14T11:18:32.396Z,39.01
2022-08-14T11:21:06.958Z,38.94
2022-08-14T11:23:39.782Z,38.61
2022-08-14T11:26:10.682Z,38.80
2022-08-14T11:28:47.873Z,38.46
2022-08-14T11:31:19.780Z,38.69
2022-08-14T11:33:51.213Z,38.72
2022-08-14T11:36:23.510Z,38.74
2022-08-14T11:38:51.551Z,38.44
2022-08-14T11:41:21.720Z,37.95
2022-08-14T11:43:57.689Z,38.52
2022-08-14T11:46:29.946Z,38.36
2022-08-14T11:49:06.579Z,38.25
2022-08-14T11:51:52.906Z,38.19
2022-08-14T11:54:34.939Z,38.46
2022-08-14T11:57:04.412Z,38.29
2022-08-14T11:59:34.290Z,38.16
2022-08-14T12:03:01.009Z,38.03
2022-08-14T12:04:58.687Z,37.98
2022-08-14T12:07:26.782Z,38.19
2022-08-14T12:09:59.355Z,38.33
2022-08-14T12:12:35.845Z,38.33
2022-08-14T12:15:07.020Z,38.56
2022-08-14T12:17:49.607Z,38.16
2022-08-14T12:20:29.985Z,37.83
2022-08-14T12:23:01.613Z,37.64
2022-08-14T12:25:30.018Z,37.05
2022-08-14T12:28:08.437Z,37.92
2022-08-14T12:30:42.990Z,37.87
2022-08-14T12:33:25.584Z,37.44
2022-08-14T12:35:57.985Z,36.97
2022-08-14T12:38:38.168Z,36.87
2022-08-14T12:41:11.524Z,36.39
2022-08-14T12:43:51.509Z,36.58
2022-08-14T12:46:27.138Z,34.40
2022-08-14T12:48:57.189Z,35.94
2022-08-14T12:51:27.425Z,35.25
2022-08-14T12:53:59.644Z,35.50
2022-08-14T12:56:33.479Z,36.42
2022-08-14T12:59:02.729Z,34.95
2022-08-14T13:02:00.396Z,35.84
2022-08-14T13:04:22.961Z,34.90
2022-08-14T13:06:52.873Z,35.27
2022-08-14T13:09:21.169Z,36.17
2022-08-14T13:11:58.367Z,36.59
2022-08-14T13:14:29.603Z,36.85
2022-08-14T13:16:59.441Z,36.68
2022-08-14T13:19:28.414Z,36.67
2022-08-14T13:22:04.808Z,36.87
2022-08-14T13:24:35.664Z,35.25
2022-08-14T13:27:05.043Z,35.85
2022-08-14T13:29:43.851Z,35.90
2022-08-14T13:32:16.506Z,36.70
2022-08-14T13:34:46.029Z,36.43
2022-08-14T13:37:15.312Z,36.58
2022-08-14T13:39:56.431Z,36.07
2022-08-14T13:42:27.751Z,36.01
2022-08-14T13:45:00.322Z,35.75
2022-08-14T13:47:32.990Z,35.89
2022-08-14T13:50:04.670Z,36.11
2022-08-14T13:52:51.338Z,35.90
2022-08-14T13:55:23.634Z,35.95
2022-08-14T13:58:02.935Z,35.02
2022-08-14T14:00:35.334Z,35.00
2022-08-14T14:03:07.359Z,35.29
2022-08-14T14:05:53.329Z,35.38
2022-08-14T14:08:46.852Z,34.42
2022-08-14T14:11:11.129Z,33.37
2022-08-14T14:13:44.766Z,34.15
2022-08-14T14:16:15.311Z,33.28
2022-08-14T14:18:56.279Z,33.12
2022-08-14T14:21:26.553Z,33.13
2022-08-14T14:23:57.142Z,34.15
2022-08-14T14:26:25.410Z,33.40
2022-08-14T14:28:57.574Z,33.03
2022-08-14T14:31:30.368Z,32.80
2022-08-14T14:34:07.379Z,32.69
2022-08-14T14:36:45.044Z,32.87
2022-08-14T14:39:20.277Z,34.06
2022-08-14T14:41:56.069Z,34.24
2022-08-14T14:44:26.924Z,34.23
2022-08-14T14:46:56.415Z,34.22
2022-08-14T14:49:41.813Z,34.18
2022-08-14T14:52:27.289Z,34.30
2022-08-14T14:54:56.543Z,34.11
2022-08-14T14:57:30.358Z,34.15
2022-08-14T15:00:02.857Z,34.57
2022-08-14T15:02:38.253Z,34.18
2022-08-14T15:05:09.030Z,33.90
2022-08-14T15:07:37.207Z,33.73
2022-08-14T15:10:06.423Z,33.96
2022-08-14T15:12:57.466Z,33.48
2022-08-14T15:15:25.699Z,34.05
2022-08-14T15:17:55.128Z,33.80
2022-08-14T15:20:30.842Z,33.59
2022-08-14T15:23:00.969Z,33.40
2022-08-14T15:25:37.073Z,32.80
2022-08-14T15:28:12.646Z,33.10
2022-08-14T15:30:41.012Z,32.89
2022-08-14T15:33:09.756Z,33.24
2022-08-14T15:35:44.905Z,32.52
2022-08-14T15:38:17.612Z,32.25
2022-08-14T15:40:51.748Z,32.85
2022-08-14T15:43:25.502Z,33.07
2022-08-14T15:45:55.575Z,33.19
2022-08-14T15:48:23.967Z,33.09
2022-08-14T15:50:53.038Z,33.18
2022-08-14T15:53:23.318Z,33.14
2022-08-14T15:55:53.030Z,33.45
2022-08-14T15:58:21.688Z,33.22
2022-08-14T16:01:07.311Z,33.03
2022-08-14T16:03:39.803Z,33.06
2022-08-14T16:06:15.302Z,33.39
2022-08-14T16:08:50.136Z,33.24
2022-08-14T16:11:26.218Z,33.46
2022-08-14T16:13:57.517Z,33.48
2022-08-14T16:16:34.344Z,33.49
2022-08-14T16:19:20.073Z,33.61
2022-08-14T16:22:02.629Z,33.48
2022-08-14T16:25:02.690Z,33.31
2022-08-14T16:27:33.688Z,33.25
2022-08-14T16:30:06.373Z,33.51
2022-08-14T16:32:54.847Z,33.14
2022-08-14T16:35:26.276Z,33.28
2022-08-14T16:37:56.245Z,33.20
2022-08-14T16:43:04.085Z,33.22
2022-08-14T16:45:43.717Z,33.07
2022-08-14T16:48:55.263Z,32.97
2022-08-14T16:51:01.663Z,32.94
2022-08-14T16:53:37.223Z,33.18
2022-08-14T16:56:23.190Z,32.77
2022-08-14T16:59:05.761Z,32.91
2022-08-14T17:01:33.770Z,32.52
2022-08-14T17:04:06.487Z,32.54
2022-08-14T17:06:45.370Z,32.22
2022-08-14T17:09:30.450Z,32.63
2022-08-14T17:12:07.572Z,32.89
2022-08-14T17:15:03.606Z,32.77
2022-08-14T17:17:56.391Z,32.71
2022-08-14T17:20:39.351Z,32.53
2022-08-14T17:23:15.054Z,32.29
2022-08-14T17:25:49.428Z,31.73
2022-08-14T17:28:49.847Z,32.40
2022-08-14T17:31:08.526Z,32.21
2022-08-14T17:33:40.433Z,32.36
2022-08-14T17:36:21.222Z,32.50
2022-08-14T17:39:00.094Z,32.18
2022-08-14T17:41:37.435Z,32.14
2022-08-14T17:44:20.249Z,31.94
2022-08-14T17:46:55.202Z,32.06
2022-08-14T17:49:27.104Z,32.47
2022-08-14T17:52:07.890Z,32.20
2022-08-14T17:54:58.798Z,32.50
2022-08-14T17:57:35.313Z,32.47
2022-08-14T18:00:12.322Z,32.37
2022-08-14T18:02:51.054Z,32.27
2022-08-14T18:05:23.506Z,32.45
2022-08-14T18:08:32.389Z,32.22
2022-08-14T18:10:58.106Z,32.44
2022-08-14T18:13:50.366Z,32.34
2022-08-14T18:16:20.145Z,32.56
2022-08-14T18:18:51.233Z,31.95
2022-08-14T18:21:42.448Z,32.33
2022-08-14T18:24:19.888Z,32.43
2022-08-14T18:27:01.864Z,32.64
2022-08-14T18:29:32.641Z,32.66
2022-08-14T18:32:00.692Z,32.29
2022-08-14T18:34:37.935Z,32.56
2022-08-14T18:37:21.917Z,32.83
2022-08-14T18:40:01.112Z,32.64
2022-08-14T18:42:45.846Z,32.82
2022-08-14T18:45:18.920Z,32.77
2022-08-14T18:48:28.665Z,32.94
2022-08-14T18:51:45.207Z,33.04
2022-08-14T18:54:29.951Z,32.71
2022-08-14T18:57:03.318Z,32.77
2022-08-14T18:59:36.446Z,32.76
2022-08-14T19:02:42.785Z,32.61
2022-08-14T19:05:13.424Z,33.09
2022-08-14T19:07:43.503Z,32.84
2022-08-14T19:10:37.260Z,33.19
2022-08-14T19:13:11.874Z,33.00
2022-08-14T19:15:42.611Z,33.03
2022-08-14T19:18:27.956Z,32.69
2022-08-14T19:20:59.594Z,32.95
2022-08-14T19:23:42.239Z,32.80
2022-08-14T19:26:36.773Z,33.03
2022-08-14T19:29:37.828Z,32.74
2022-08-14T19:32:39.076Z,33.09
2022-08-14T19:35:50.132Z,33.01
2022-08-14T19:38:51.956Z,33.05
2022-08-14T19:41:22.400Z,33.23
2022-08-14T19:43:56.992Z,32.96
2022-08-14T19:46:37.795Z,33.21
2022-08-14T19:49:07.854Z,33.04
2022-08-14T19:51:44.543Z,33.02
2022-08-14T19:54:15.129Z,33.27
2022-08-14T19:56:45.363Z,33.14
2022-08-14T19:59:19.483Z,33.08
2022-08-14T20:01:52.141Z,33.00
2022-08-14T20:04:46.864Z,33.13
2022-08-14T20:08:00.173Z,33.04
2022-08-14T20:11:07.905Z,32.94
2022-08-14T20:13:23.522Z,33.31
2022-08-14T20:15:51.914Z,33.35
2022-08-14T20:18:50.207Z,33.16
2022-08-14T20:21:15.807Z,33.23
2022-08-14T20:23:43.603Z,33.47
2022-08-14T20:26:31.942Z,33.57
2022-08-14T20:29:07.187Z,33.02
2022-08-14T20:31:38.461Z,33.55
2022-08-14T20:34:24.723Z,33.06
2022-08-14T20:37:09.963Z,33.12
2022-08-14T20:39:54.541Z,33.05
2022-08-14T20:42:43.719Z,33.36
2022-08-14T20:45:21.562Z,33.36
2022-08-14T20:47:56.717Z,33.28
2022-08-14T20:50:28.545Z,33.64
2022-08-14T20:52:57.479Z,33.52
2022-08-14T20:55:29.258Z,33.65
2022-08-14T20:58:09.949Z,33.19
2022-08-14T21:01:00.651Z,33.58
2022-08-14T21:03:56.419Z,33.75
2022-08-14T21:06:27.750Z,33.31
2022-08-14T21:09:02.280Z,33.42
2022-08-14T21:11:30.874Z,33.48
2022-08-14T21:14:25.203Z,33.42
2022-08-14T21:16:58.646Z,33.47
2022-08-14T21:19:29.376Z,33.76
2022-08-14T21:22:00.095Z,33.58
2022-08-14T21:24:39.571Z,33.91
2022-08-14T21:27:20.151Z,34.00
2022-08-14T21:29:55.056Z,33.95
2022-08-14T21:32:35.150Z,33.79
2022-08-14T21:35:08.487Z,33.74
2022-08-14T21:37:43.669Z,33.75
2022-08-14T21:40:18.839Z,34.17
2022-08-14T21:43:00.373Z,34.10
2022-08-14T21:45:28.105Z,33.92
2022-08-14T21:47:56.403Z,34.11
2022-08-14T21:50:59.853Z,34.33
2022-08-14T21:53:15.535Z,34.36
2022-08-14T21:55:44.773Z,33.91
2022-08-14T21:58:53.229Z,34.01
2022-08-14T22:01:02.039Z,34.32
2022-08-14T22:03:35.079Z,34.29
2022-08-14T22:06:05.072Z,33.96
2022-08-14T22:08:38.410Z,34.46
2022-08-14T22:11:07.357Z,34.54
2022-08-14T22:13:46.813Z,34.05
2022-08-14T22:17:01.663Z,34.11
2022-08-14T22:19:05.603Z,34.25
2022-08-14T22:21:39.932Z,34.11
2022-08-14T22:24:12.470Z,34.39
2022-08-14T22:27:01.923Z,34.06
2022-08-14T22:29:29.942Z,34.24
2022-08-14T22:31:58.170Z,34.57
2022-08-14T22:34:26.865Z,34.18
2022-08-14T22:36:58.457Z,34.79
2022-08-14T22:40:15.370Z,34.35
2022-08-14T22:42:20.874Z,34.30
2022-08-14T22:44:51.094Z,34.75
2022-08-14T22:47:25.121Z,34.58
2022-08-14T22:50:31.831Z,34.63
2022-08-14T22:52:49.236Z,34.41
2022-08-14T22:55:17.652Z,35.10
2022-08-14T22:57:45.355Z,34.97
2022-08-14T23:00:16.647Z,35.13
2022-08-14T23:02:46.747Z,35.11
2022-08-14T23:05:15.492Z,35.12
2022-08-14T23:08:57.600Z,35.25
2022-08-14T23:10:34.845Z,34.80
2022-08-14T23:13:04.158Z,35.19
2022-08-14T23:15:33.881Z,35.23
2022-08-14T23:18:03.770Z,35.41
2022-08-14T23:20:36.336Z,34.89
2022-08-14T23:23:13.188Z,35.04
2022-08-14T23:25:59.840Z,35.09
2022-08-14T23:28:56.856Z,35.12
2022-08-14T23:31:34.611Z,35.21
2022-08-14T23:34:07.206Z,35.33
2022-08-14T23:36:37.579Z,35.25
2022-08-14T23:39:24.691Z,35.90
2022-08-14T23:42:02.156Z,35.72
2022-08-14T23:44:35.127Z,35.38
2022-08-14T23:47:11.922Z,35.91
2022-08-14T23:50:01.297Z,35.80
2022-08-14T23:53:06.314Z,35.66
2022-08-14T23:55:27.195Z,35.99
2022-08-14T23:57:57.269Z,35.89
